Time;durP1;ratioP1;P1;durP2;ratioP2;P2;SDS_P1;SDS_P2;PMS_P1;PMS_P2;Temp;Humidity;BMP_temperature;BMP_pressure;BME280_temperature;BME280_humidity;BME280_pressure;Samples;Min_cycle;Max_cycle;Signal;HPM_P1;HPM_P2
2022/09/25 00:00:57;;;;;;;5.47;4.50;;;;;;;;;;4951789;28;20321;-51
2022/09/25 00:03:24;;;;;;;3.77;3.40;;;;;;;;;;4968666;28;20650;-52
2022/09/25 00:05:51;;;;;;;6.30;3.90;;;;;;;;;;4968728;28;20668;-52
2022/09/25 00:08:18;;;;;;;4.40;3.60;;;;;;;;;;4966647;28;20659;-51
2022/09/25 00:10:49;;;;;;;4.47;3.30;;;;;;;;;;4968497;28;20773;-51
2022/09/25 00:13:18;;;;;;;6.10;3.37;;;;;;;;;;4969837;28;20196;-53
2022/09/25 00:15:49;;;;;;;6.50;3.27;;;;;;;;;;4968771;28;20212;-53
2022/09/25 00:18:15;;;;;;;4.47;3.90;;;;;;;;;;4950979;28;20183;-52
2022/09/25 00:20:41;;;;;;;5.00;3.50;;;;;;;;;;4969414;28;20763;-52
2022/09/25 00:23:08;;;;;;;3.67;3.37;;;;;;;;;;4967536;28;20180;-52
2022/09/25 00:25:35;;;;;;;5.40;3.23;;;;;;;;;;4968461;28;20526;-52
2022/09/25 00:28:01;;;;;;;4.10;3.30;;;;;;;;;;4951211;28;20221;-52
2022/09/25 00:30:27;;;;;;;4.30;3.13;;;;;;;;;;4965856;28;20184;-51
2022/09/25 00:32:53;;;;;;;3.87;3.10;;;;;;;;;;4967952;28;20227;-52
2022/09/25 00:35:19;;;;;;;6.67;2.90;;;;;;;;;;4967877;28;20570;-53
2022/09/25 00:37:45;;;;;;;5.10;3.00;;;;;;;;;;4968550;28;20612;-52
2022/09/25 00:40:12;;;;;;;4.93;3.40;;;;;;;;;;4967130;28;20172;-52
2022/09/25 00:42:40;;;;;;;5.20;3.23;;;;;;;;;;4968483;28;20195;-52
2022/09/25 00:45:13;;;;;;;3.87;2.77;;;;;;;;;;4969051;28;20191;-53
2022/09/25 00:47:46;;;;;;;4.37;3.10;;;;;;;;;;4967924;28;20192;-52
2022/09/25 00:50:41;;;;;;;5.33;3.07;;;;;;;;;;4969572;28;20648;-53
2022/09/25 00:53:13;;;;;;;3.80;2.60;;;;;;;;;;4949804;28;20682;-52
2022/09/25 00:55:40;;;;;;;3.13;2.40;;;;;;;;;;4968674;28;20294;-52
2022/09/25 00:58:07;;;;;;;5.80;3.53;;;;;;;;;;4968790;28;20591;-52
2022/09/25 01:00:33;;;;;;;2.60;2.00;;;;;;;;;;4966718;28;20215;-53
2022/09/25 01:02:59;;;;;;;5.07;2.70;;;;;;;;;;4967463;28;20190;-52
2022/09/25 01:05:30;;;;;;;3.60;2.67;;;;;;;;;;4966445;28;20190;-52
2022/09/25 01:07:57;;;;;;;4.90;2.60;;;;;;;;;;4949751;28;20579;-51
2022/09/25 01:10:23;;;;;;;3.37;2.57;;;;;;;;;;4966834;28;20447;-52
2022/09/25 01:12:50;;;;;;;3.90;2.40;;;;;;;;;;4967493;28;20191;-53
2022/09/25 01:15:18;;;;;;;4.30;2.53;;;;;;;;;;4966272;28;20206;-52
2022/09/25 01:17:51;;;;;;;3.30;2.13;;;;;;;;;;4963603;28;20535;-52
2022/09/25 01:20:32;;;;;;;3.27;2.50;;;;;;;;;;4958760;28;20234;-52
2022/09/25 01:23:07;;;;;;;3.27;2.30;;;;;;;;;;4966347;28;20179;-53
2022/09/25 01:25:33;;;;;;;3.87;2.50;;;;;;;;;;4968384;28;20191;-52
2022/09/25 01:28:10;;;;;;;3.27;2.57;;;;;;;;;;4968753;28;20631;-51
2022/09/25 01:30:39;;;;;;;2.70;2.27;;;;;;;;;;4950664;28;20187;-52
2022/09/25 01:33:08;;;;;;;4.33;2.70;;;;;;;;;;4961207;28;20193;-51
2022/09/25 01:36:04;;;;;;;6.80;2.93;;;;;;;;;;4962812;28;21047;-51
2022/09/25 01:38:45;;;;;;;6.00;2.50;;;;;;;;;;4951304;28;20572;-52
2022/09/25 01:41:13;;;;;;;3.23;2.10;;;;;;;;;;4950125;28;20187;-53
2022/09/25 01:43:41;;;;;;;3.97;2.03;;;;;;;;;;4952544;28;20164;-52
2022/09/25 01:46:13;;;;;;;5.57;2.43;;;;;;;;;;4968491;28;20666;-51
2022/09/25 01:48:41;;;;;;;5.13;3.00;;;;;;;;;;4967982;28;20231;-51
2022/09/25 01:51:10;;;;;;;5.27;2.60;;;;;;;;;;4950577;28;20210;-52
2022/09/25 01:53:39;;;;;;;3.13;2.17;;;;;;;;;;4968414;28;20188;-52
2022/09/25 01:56:08;;;;;;;2.43;2.23;;;;;;;;;;4950959;28;20626;-51
2022/09/25 01:58:42;;;;;;;4.60;2.13;;;;;;;;;;4968365;28;20179;-52
2022/09/25 02:01:11;;;;;;;3.87;2.30;;;;;;;;;;4967967;28;20188;-51
2022/09/25 02:03:42;;;;;;;2.20;2.10;;;;;;;;;;4948656;28;20190;-51
2022/09/25 02:06:10;;;;;;;2.87;2.17;;;;;;;;;;4964738;28;20333;-51
2022/09/25 02:08:40;;;;;;;3.43;2.00;;;;;;;;;;4965035;28;20565;-52
2022/09/25 02:11:07;;;;;;;2.83;2.00;;;;;;;;;;4959695;28;20571;-53
2022/09/25 02:13:59;;;;;;;3.17;2.40;;;;;;;;;;4968680;28;20191;-52
2022/09/25 02:16:28;;;;;;;3.90;2.63;;;;;;;;;;4943869;28;20632;-52
2022/09/25 02:21:59;;;;;;;2.27;1.93;;;;;;;;;;4963246;28;20541;-51
2022/09/25 02:24:36;;;;;;;4.27;2.50;;;;;;;;;;4966622;28;20693;-50
2022/09/25 02:27:02;;;;;;;3.50;2.00;;;;;;;;;;4962604;28;20195;-51
2022/09/25 02:29:29;;;;;;;4.27;2.40;;;;;;;;;;4951179;28;20206;-53
2022/09/25 02:32:07;;;;;;;5.17;1.90;;;;;;;;;;4963554;28;20191;-50
2022/09/25 02:34:34;;;;;;;2.03;1.83;;;;;;;;;;4956999;28;20740;-51
2022/09/25 02:37:00;;;;;;;1.80;1.70;;;;;;;;;;4945742;28;20286;-51
2022/09/25 02:39:30;;;;;;;3.50;2.37;;;;;;;;;;4948495;28;20192;-51
2022/09/25 02:41:56;;;;;;;3.27;2.20;;;;;;;;;;4966970;28;20271;-51
2022/09/25 02:44:42;;;;;;;1.93;1.77;;;;;;;;;;4954449;28;20212;-53
2022/09/25 02:47:12;;;;;;;3.87;2.20;;;;;;;;;;4969265;28;20592;-51
2022/09/25 02:49:47;;;;;;;4.80;2.20;;;;;;;;;;4961986;28;20187;-51
2022/09/25 02:52:19;;;;;;;4.87;2.20;;;;;;;;;;4949240;28;20604;-51
2022/09/25 02:54:45;;;;;;;3.27;2.17;;;;;;;;;;4969971;28;20242;-51
2022/09/25 02:57:14;;;;;;;4.97;2.50;;;;;;;;;;4966000;28;20647;-51
2022/09/25 02:59:42;;;;;;;4.83;2.03;;;;;;;;;;4953082;28;20180;-51
2022/09/25 03:02:10;;;;;;;4.33;1.97;;;;;;;;;;4963651;28;20219;-51
2022/09/25 03:04:37;;;;;;;5.20;2.20;;;;;;;;;;4971604;28;20195;-51
2022/09/25 03:07:04;;;;;;;3.50;1.93;;;;;;;;;;4966532;28;20736;-51
2022/09/25 03:09:33;;;;;;;6.40;2.60;;;;;;;;;;4970140;28;20539;-51
2022/09/25 03:12:01;;;;;;;2.73;2.10;;;;;;;;;;4964317;28;20188;-52
2022/09/25 03:14:28;;;;;;;2.17;1.97;;;;;;;;;;4971247;28;20661;-51
2022/09/25 03:16:55;;;;;;;5.70;5.20;;;;;;;;;;4968739;28;20536;-51
2022/09/25 03:19:22;;;;;;;3.13;2.00;;;;;;;;;;4971028;28;20184;-50
2022/09/25 03:21:49;;;;;;;3.17;1.83;;;;;;;;;;4968732;28;20590;-52
2022/09/25 03:24:16;;;;;;;3.83;1.97;;;;;;;;;;4952743;28;20234;-53
2022/09/25 03:26:42;;;;;;;3.13;2.07;;;;;;;;;;4966590;28;20183;-51
2022/09/25 03:29:08;;;;;;;3.10;2.10;;;;;;;;;;4953879;28;20555;-50
2022/09/25 03:31:34;;;;;;;4.83;4.43;;;;;;;;;;4969145;28;20274;-53
2022/09/25 03:34:00;;;;;;;6.57;2.47;;;;;;;;;;4970684;28;20169;-52
2022/09/25 03:36:28;;;;;;;2.37;1.70;;;;;;;;;;4968263;28;20203;-51
2022/09/25 03:38:57;;;;;;;2.80;1.90;;;;;;;;;;4971040;28;20199;-51
2022/09/25 03:41:24;;;;;;;2.47;1.90;;;;;;;;;;4968308;28;20180;-51
2022/09/25 03:43:51;;;;;;;5.00;2.20;;;;;;;;;;4954336;28;20192;-51
2022/09/25 03:46:18;;;;;;;4.00;2.00;;;;;;;;;;4952642;28;20651;-51
2022/09/25 03:48:45;;;;;;;4.33;2.23;;;;;;;;;;4968244;28;20242;-53
2022/09/25 03:51:18;;;;;;;6.60;2.20;;;;;;;;;;4968614;28;20588;-51
2022/09/25 03:53:50;;;;;;;4.20;2.37;;;;;;;;;;4970738;28;20500;-50
2022/09/25 03:56:22;;;;;;;3.30;2.07;;;;;;;;;;4949048;29;20208;-51
2022/09/25 03:58:48;;;;;;;5.53;2.97;;;;;;;;;;4946144;29;20635;-52
2022/09/25 04:01:15;;;;;;;3.60;3.33;;;;;;;;;;4949805;29;20189;-52
2022/09/25 04:03:46;;;;;;;3.63;1.87;;;;;;;;;;4933245;29;20173;-52
2022/09/25 04:06:12;;;;;;;4.57;2.60;;;;;;;;;;4943688;29;20223;-51
2022/09/25 04:08:39;;;;;;;2.70;2.10;;;;;;;;;;4933099;29;20552;-51
2022/09/25 04:11:05;;;;;;;5.07;2.23;;;;;;;;;;4931123;29;20208;-52
2022/09/25 04:13:34;;;;;;;3.07;1.73;;;;;;;;;;4932543;29;20581;-51
2022/09/25 04:16:01;;;;;;;3.70;2.20;;;;;;;;;;4932978;29;20319;-52
2022/09/25 04:18:30;;;;;;;6.63;2.53;;;;;;;;;;4943568;29;20189;-52
2022/09/25 04:21:00;;;;;;;4.77;2.20;;;;;;;;;;4945999;29;20172;-52
2022/09/25 04:23:26;;;;;;;3.13;2.57;;;;;;;;;;4945360;29;20215;-52
2022/09/25 04:25:53;;;;;;;6.17;2.20;;;;;;;;;;4932464;29;20188;-51
2022/09/25 04:28:21;;;;;;;2.00;1.60;;;;;;;;;;4950981;29;20301;-51
2022/09/25 04:30:47;;;;;;;3.50;2.27;;;;;;;;;;4949941;29;20185;-51
2022/09/25 04:35:58;;;;;;;2.60;1.80;;;;;;;;;;4950021;29;20223;-54
2022/09/25 04:38:24;;;;;;;2.27;1.87;;;;;;;;;;4950479;28;20691;-52
2022/09/25 04:40:50;;;;;;;2.47;2.00;;;;;;;;;;4947571;29;20551;-52
2022/09/25 04:43:17;;;;;;;3.20;2.10;;;;;;;;;;4932927;29;20696;-52
2022/09/25 04:45:43;;;;;;;3.23;1.90;;;;;;;;;;4950323;29;20671;-51
2022/09/25 04:48:09;;;;;;;3.20;2.00;;;;;;;;;;4932370;29;20192;-52
2022/09/25 04:50:35;;;;;;;4.00;2.33;;;;;;;;;;4949340;29;20637;-52
2022/09/25 04:53:01;;;;;;;5.07;2.20;;;;;;;;;;4952941;28;20191;-51
2022/09/25 04:55:27;;;;;;;3.30;1.90;;;;;;;;;;4967437;28;20249;-51
2022/09/25 04:57:55;;;;;;;3.27;1.93;;;;;;;;;;4964906;28;20243;-51
2022/09/25 05:00:21;;;;;;;5.67;2.77;;;;;;;;;;4949865;28;20254;-51
2022/09/25 05:02:47;;;;;;;4.97;2.08;;;;;;;;;;4965839;28;20882;-51
2022/09/25 05:05:14;;;;;;;4.40;3.03;;;;;;;;;;4951755;28;20649;-51
2022/09/25 05:07:40;;;;;;;3.23;1.80;;;;;;;;;;4948851;28;20768;-51
2022/09/25 05:10:07;;;;;;;2.80;1.80;;;;;;;;;;4950145;28;20183;-53
2022/09/25 05:12:34;;;;;;;1.90;1.60;;;;;;;;;;4963986;28;20180;-51
2022/09/25 05:15:01;;;;;;;2.20;1.70;;;;;;;;;;4969885;28;20214;-52
2022/09/25 05:17:27;;;;;;;2.93;1.80;;;;;;;;;;4946644;28;20191;-51
2022/09/25 05:19:53;;;;;;;2.60;1.80;;;;;;;;;;4968942;28;20191;-51
2022/09/25 05:22:19;;;;;;;3.37;2.40;;;;;;;;;;4943259;28;20220;-52
2022/09/25 05:25:03;;;;;;;3.90;2.13;;;;;;;;;;4795329;27;8208188;-52
2022/09/25 05:27:31;;;;;;;3.70;1.80;;;;;;;;;;5073331;28;20218;-52
2022/09/25 05:29:58;;;;;;;2.53;2.00;;;;;;;;;;5065471;28;20635;-51
2022/09/25 05:32:24;;;;;;;2.10;1.90;;;;;;;;;;5050335;28;20566;-51
2022/09/25 05:34:50;;;;;;;2.53;2.10;;;;;;;;;;5069187;28;20169;-51
2022/09/25 05:37:16;;;;;;;4.13;2.13;;;;;;;;;;5078333;28;20236;-51
2022/09/25 05:39:42;;;;;;;3.70;2.07;;;;;;;;;;5081617;28;20182;-50
2022/09/25 05:42:08;;;;;;;3.33;2.00;;;;;;;;;;5086995;28;20172;-51
2022/09/25 05:44:34;;;;;;;2.77;1.70;;;;;;;;;;5095680;28;20374;-51
2022/09/25 05:47:03;;;;;;;3.00;1.90;;;;;;;;;;5083156;28;20693;-51
2022/09/25 05:49:29;;;;;;;2.37;1.90;;;;;;;;;;5074337;28;20165;-51
2022/09/25 05:51:55;;;;;;;2.20;1.77;;;;;;;;;;5061307;28;20187;-52
2022/09/25 05:54:21;;;;;;;3.73;1.97;;;;;;;;;;5082848;28;20660;-52
2022/09/25 05:56:47;;;;;;;1.83;1.73;;;;;;;;;;5078359;28;20653;-51
2022/09/25 05:59:16;;;;;;;3.67;2.07;;;;;;;;;;5074543;28;20513;-51
2022/09/25 06:01:42;;;;;;;4.13;1.87;;;;;;;;;;5053731;28;20176;-53
2022/09/25 06:04:09;;;;;;;2.97;2.00;;;;;;;;;;5072241;28;20609;-51
2022/09/25 06:06:35;;;;;;;4.07;2.30;;;;;;;;;;5070824;28;20215;-51
2022/09/25 06:09:01;;;;;;;1.83;1.60;;;;;;;;;;5065683;28;20183;-51
2022/09/25 06:11:28;;;;;;;3.37;1.83;;;;;;;;;;5083272;28;20187;-50
2022/09/25 06:13:56;;;;;;;2.23;1.73;;;;;;;;;;5066093;28;20261;-51
2022/09/25 06:16:22;;;;;;;3.40;1.90;;;;;;;;;;5061458;28;20188;-52
2022/09/25 06:18:48;;;;;;;4.17;2.17;;;;;;;;;;5078920;28;20238;-52
2022/09/25 06:21:14;;;;;;;3.90;2.20;;;;;;;;;;5082598;28;20747;-51
2022/09/25 06:23:43;;;;;;;3.43;2.10;;;;;;;;;;5082631;28;20567;-51
2022/09/25 06:26:10;;;;;;;2.40;2.10;;;;;;;;;;5061421;28;20203;-52
2022/09/25 06:28:36;;;;;;;2.20;1.93;;;;;;;;;;5074804;28;20182;-53
2022/09/25 06:31:02;;;;;;;3.13;2.17;;;;;;;;;;5081952;28;20242;-51
2022/09/25 06:33:29;;;;;;;4.57;2.30;;;;;;;;;;5063694;28;20271;-52
2022/09/25 06:35:55;;;;;;;4.20;2.30;;;;;;;;;;5087571;28;20191;-51
2022/09/25 06:38:21;;;;;;;2.80;1.87;;;;;;;;;;5069120;28;20592;-52
2022/09/25 06:40:48;;;;;;;3.20;2.20;;;;;;;;;;5066656;28;20187;-52
2022/09/25 06:43:15;;;;;;;2.63;1.83;;;;;;;;;;5065281;28;20212;-51
2022/09/25 06:45:42;;;;;;;6.87;2.63;;;;;;;;;;5051297;28;20581;-52
2022/09/25 06:48:09;;;;;;;4.80;2.27;;;;;;;;;;5051004;28;20185;-51
2022/09/25 06:50:52;;;;;;;2.17;1.70;;;;;;;;;;5067779;28;20679;-51
2022/09/25 06:53:19;;;;;;;3.27;1.80;;;;;;;;;;5046787;28;20533;-52
2022/09/25 06:55:46;;;;;;;3.83;2.10;;;;;;;;;;5068413;28;20559;-51
2022/09/25 06:58:14;;;;;;;4.27;2.17;;;;;;;;;;5051561;28;20191;-52
2022/09/25 07:00:41;;;;;;;4.33;2.03;;;;;;;;;;5060006;28;20212;-51
2022/09/25 07:05:52;;;;;;;2.90;1.90;;;;;;;;;;5061875;28;20279;-53
2022/09/25 07:08:19;;;;;;;3.50;2.30;;;;;;;;;;5056478;28;20187;-52
2022/09/25 07:10:56;;;;;;;2.13;1.93;;;;;;;;;;5067672;28;20186;-51
2022/09/25 07:13:27;;;;;;;4.40;2.20;;;;;;;;;;5056103;28;20185;-52
2022/09/25 07:15:54;;;;;;;4.80;2.40;;;;;;;;;;5063125;28;20703;-51
2022/09/25 07:18:21;;;;;;;3.93;2.10;;;;;;;;;;5061975;28;20172;-52
2022/09/25 07:20:48;;;;;;;4.87;2.30;;;;;;;;;;5066764;28;20184;-52
2022/09/25 07:23:15;;;;;;;3.30;2.00;;;;;;;;;;5068571;28;20212;-53
2022/09/25 07:25:42;;;;;;;2.27;2.07;;;;;;;;;;5046824;28;20202;-52
2022/09/25 07:28:11;;;;;;;2.83;2.20;;;;;;;;;;5066882;28;20641;-52
2022/09/25 07:30:37;;;;;;;4.77;2.10;;;;;;;;;;5066710;28;20413;-54
2022/09/25 07:33:03;;;;;;;4.30;2.20;;;;;;;;;;5066165;28;20169;-51
2022/09/25 07:35:29;;;;;;;5.23;2.23;;;;;;;;;;5052139;28;20187;-52
2022/09/25 07:37:56;;;;;;;3.93;2.43;;;;;;;;;;5057305;28;20208;-52
2022/09/25 07:40:22;;;;;;;4.63;2.17;;;;;;;;;;5054019;28;20704;-52
2022/09/25 07:42:49;;;;;;;3.93;2.07;;;;;;;;;;5068204;28;20192;-53
2022/09/25 07:45:15;;;;;;;3.30;1.90;;;;;;;;;;5051067;28;20462;-51
2022/09/25 07:47:41;;;;;;;3.90;2.30;;;;;;;;;;5052362;28;20271;-51
2022/09/25 07:50:08;;;;;;;5.60;2.67;;;;;;;;;;5069483;28;20226;-51
2022/09/25 07:52:37;;;;;;;3.90;2.53;;;;;;;;;;5054094;28;20180;-52
2022/09/25 07:55:03;;;;;;;9.87;2.27;;;;;;;;;;5077016;28;20194;-51
2022/09/25 07:57:30;;;;;;;4.73;2.13;;;;;;;;;;5047015;28;20667;-51
2022/09/25 07:59:56;;;;;;;5.93;2.10;;;;;;;;;;5051853;28;20211;-52
2022/09/25 08:02:22;;;;;;;6.57;2.67;;;;;;;;;;5044372;28;20245;-52
2022/09/25 08:04:49;;;;;;;2.77;2.10;;;;;;;;;;5067656;28;20198;-52
2022/09/25 08:07:15;;;;;;;9.40;2.77;;;;;;;;;;5051432;28;20578;-51
2022/09/25 08:09:41;;;;;;;10.00;2.70;;;;;;;;;;5066591;28;20176;-52
2022/09/25 08:12:10;;;;;;;9.23;2.80;;;;;;;;;;5038091;28;20586;-51
2022/09/25 08:14:36;;;;;;;11.30;4.73;;;;;;;;;;5063764;28;20183;-51
2022/09/25 08:17:02;;;;;;;8.40;3.20;;;;;;;;;;5070718;28;20172;-51
2022/09/25 08:19:29;;;;;;;14.43;4.80;;;;;;;;;;5050663;28;20184;-51
2022/09/25 08:21:55;;;;;;;8.00;2.50;;;;;;;;;;5050072;28;20188;-51
2022/09/25 08:24:21;;;;;;;4.33;2.30;;;;;;;;;;5039042;28;20228;-52
2022/09/25 08:26:49;;;;;;;6.67;3.40;;;;;;;;;;5044153;28;20181;-53
2022/09/25 08:29:15;;;;;;;4.53;2.00;;;;;;;;;;5045903;28;20703;-51
2022/09/25 08:31:41;;;;;;;3.80;1.87;;;;;;;;;;5044831;28;20193;-53
2022/09/25 08:34:09;;;;;;;9.17;2.20;;;;;;;;;;5029883;28;20209;-51
2022/09/25 08:36:35;;;;;;;4.63;2.10;;;;;;;;;;5044005;28;20682;-52
2022/09/25 08:39:01;;;;;;;4.90;2.27;;;;;;;;;;5048008;28;20161;-52
2022/09/25 08:41:29;;;;;;;2.90;1.90;;;;;;;;;;5045167;28;20546;-51
2022/09/25 08:43:55;;;;;;;8.77;3.00;;;;;;;;;;5029985;28;20228;-51
2022/09/25 08:49:10;;;;;;;4.27;2.10;;;;;;;;;;5050591;28;20190;-51
2022/09/25 08:51:37;;;;;;;5.23;2.23;;;;;;;;;;5033331;28;20590;-51
2022/09/25 08:54:04;;;;;;;2.33;1.73;;;;;;;;;;5029648;28;20208;-52
2022/09/25 08:56:31;;;;;;;4.83;2.20;;;;;;;;;;5029003;28;20181;-51
2022/09/25 08:59:30;;;;;;;4.73;2.07;;;;;;;;;;5043817;28;21697;-51
2022/09/25 09:01:59;;;;;;;7.57;2.00;;;;;;;;;;4980113;28;20562;-51
2022/09/25 09:04:30;;;;;;;5.00;2.23;;;;;;;;;;5026676;28;20267;-53
2022/09/25 09:07:01;;;;;;;5.97;3.23;;;;;;;;;;5027192;28;20177;-52
2022/09/25 09:09:29;;;;;;;4.03;2.30;;;;;;;;;;5046172;28;20176;-52
2022/09/25 09:12:02;;;;;;;5.87;2.13;;;;;;;;;;5044063;28;20185;-52
2022/09/25 09:14:30;;;;;;;2.77;2.27;;;;;;;;;;5030353;28;20192;-53
2022/09/25 09:16:56;;;;;;;4.93;1.80;;;;;;;;;;5063912;28;20627;-52
2022/09/25 09:19:22;;;;;;;7.33;2.30;;;;;;;;;;5065831;28;20175;-52
2022/09/25 09:22:08;;;;;;;3.97;1.83;;;;;;;;;;5057109;28;20188;-53
2022/09/25 09:24:43;;;;;;;6.90;2.37;;;;;;;;;;5064535;28;20246;-51
2022/09/25 09:27:28;;;;;;;5.30;2.80;;;;;;;;;;5062787;28;20210;-52
2022/09/25 09:30:09;;;;;;;4.60;2.53;;;;;;;;;;5065888;28;20164;-52
2022/09/25 09:32:45;;;;;;;4.60;1.90;;;;;;;;;;5059752;28;20234;-52
2022/09/25 09:35:14;;;;;;;4.60;2.00;;;;;;;;;;5065543;28;20175;-52
2022/09/25 09:37:52;;;;;;;2.97;1.87;;;;;;;;;;5067453;28;20620;-52
2022/09/25 09:40:36;;;;;;;6.70;2.10;;;;;;;;;;5064221;28;20681;-52
2022/09/25 09:43:21;;;;;;;3.07;1.80;;;;;;;;;;5047350;28;20196;-52
2022/09/25 09:46:02;;;;;;;6.00;2.03;;;;;;;;;;5052574;28;20188;-52
2022/09/25 09:48:47;;;;;;;3.07;2.20;;;;;;;;;;5035821;28;20180;-52
2022/09/25 09:51:19;;;;;;;9.77;2.10;;;;;;;;;;5062738;28;20187;-52
2022/09/25 09:53:51;;;;;;;2.27;1.63;;;;;;;;;;5063513;28;20181;-52
2022/09/25 09:56:38;;;;;;;4.73;1.63;;;;;;;;;;5052813;28;20234;-52
2022/09/25 09:59:22;;;;;;;2.40;1.70;;;;;;;;;;5064016;28;20185;-52
2022/09/25 10:01:54;;;;;;;7.37;2.70;;;;;;;;;;5057708;28;20631;-52
2022/09/25 10:04:25;;;;;;;4.03;1.70;;;;;;;;;;5048918;28;20216;-52
2022/09/25 10:06:55;;;;;;;4.73;1.83;;;;;;;;;;5064123;28;20564;-52
2022/09/25 10:09:23;;;;;;;3.67;1.70;;;;;;;;;;5047300;28;20168;-52
2022/09/25 10:11:53;;;;;;;4.17;2.00;;;;;;;;;;5068774;28;20548;-53
2022/09/25 10:14:21;;;;;;;4.47;1.70;;;;;;;;;;5070761;28;20204;-52
2022/09/25 10:16:51;;;;;;;2.40;1.40;;;;;;;;;;5069554;28;20271;-51
2022/09/25 10:19:22;;;;;;;1.40;1.30;;;;;;;;;;5051597;28;20196;-52
2022/09/25 10:21:53;;;;;;;3.70;1.60;;;;;;;;;;5043109;28;20206;-52
2022/09/25 10:24:39;;;;;;;4.40;1.50;;;;;;;;;;5034168;28;20794;-51
2022/09/25 10:27:27;;;;;;;3.07;1.70;;;;;;;;;;5043344;28;20925;-52
2022/09/25 10:30:08;;;;;;;2.53;1.80;;;;;;;;;;5069485;28;20177;-51
2022/09/25 10:32:41;;;;;;;4.53;2.10;;;;;;;;;;5050009;28;20192;-52
2022/09/25 10:35:13;;;;;;;3.97;2.27;;;;;;;;;;5068958;28;20640;-52
2022/09/25 10:37:40;;;;;;;4.83;1.93;;;;;;;;;;5068860;28;20203;-52
2022/09/25 10:40:07;;;;;;;3.33;1.97;;;;;;;;;;5069250;28;20190;-52
2022/09/25 10:42:39;;;;;;;5.20;2.83;;;;;;;;;;5067766;28;20176;-51
2022/09/25 10:45:24;;;;;;;3.53;2.30;;;;;;;;;;5068765;28;20198;-52
2022/09/25 10:50:38;;;;;;;2.07;1.70;;;;;;;;;;5062552;28;20185;-52
2022/09/25 10:53:06;;;;;;;2.03;1.63;;;;;;;;;;5068157;28;20188;-51
2022/09/25 10:55:36;;;;;;;4.67;1.80;;;;;;;;;;5069093;28;20197;-52
2022/09/25 10:58:13;;;;;;;3.17;1.70;;;;;;;;;;5048087;28;20187;-51
2022/09/25 11:00:46;;;;;;;6.00;2.53;;;;;;;;;;5058518;28;20176;-52
2022/09/25 11:03:20;;;;;;;5.07;2.23;;;;;;;;;;5049036;28;20210;-52
2022/09/25 11:05:51;;;;;;;5.30;2.50;;;;;;;;;;5050460;28;20278;-53
2022/09/25 11:08:18;;;;;;;5.60;2.33;;;;;;;;;;5067891;28;20173;-52
2022/09/25 11:10:56;;;;;;;3.87;2.20;;;;;;;;;;5051080;28;20229;-52
2022/09/25 11:13:24;;;;;;;4.43;2.53;;;;;;;;;;5066627;28;20182;-52
2022/09/25 11:15:52;;;;;;;3.27;2.60;;;;;;;;;;5050431;28;20187;-52
2022/09/25 11:18:51;;;;;;;6.47;2.00;;;;;;;;;;5049929;28;20217;-52
2022/09/25 11:21:19;;;;;;;5.30;2.50;;;;;;;;;;4994839;28;20730;-52
2022/09/25 11:24:03;;;;;;;5.53;2.00;;;;;;;;;;5050003;28;20278;-52
2022/09/25 11:26:46;;;;;;;5.80;2.50;;;;;;;;;;5036850;28;20207;-52
2022/09/25 11:29:13;;;;;;;4.80;2.47;;;;;;;;;;5050253;28;20611;-53
2022/09/25 11:31:42;;;;;;;5.17;2.07;;;;;;;;;;5048719;28;20664;-52
2022/09/25 11:34:09;;;;;;;4.43;1.87;;;;;;;;;;5066969;28;20184;-52
2022/09/25 11:36:43;;;;;;;4.17;2.07;;;;;;;;;;5066373;28;20183;-52
2022/09/25 11:42:03;;;;;;;5.30;1.87;;;;;;;;;;5061339;28;20191;-52
2022/09/25 11:44:31;;;;;;;2.20;1.90;;;;;;;;;;5067557;28;20257;-52
2022/09/25 11:47:01;;;;;;;4.77;2.07;;;;;;;;;;5045781;28;20188;-53
2022/09/25 11:49:33;;;;;;;3.60;2.00;;;;;;;;;;5066906;28;20173;-53
2022/09/25 11:52:00;;;;;;;5.97;2.57;;;;;;;;;;5046471;28;20192;-52
2022/09/25 11:54:31;;;;;;;3.67;2.33;;;;;;;;;;5047250;28;20180;-53
2022/09/25 11:57:01;;;;;;;4.27;2.13;;;;;;;;;;5065057;28;20182;-53
2022/09/25 11:59:45;;;;;;;3.03;2.17;;;;;;;;;;5068182;28;20192;-52
2022/09/25 12:02:18;;;;;;;4.73;3.10;;;;;;;;;;5065430;28;20180;-52
2022/09/25 12:04:52;;;;;;;8.07;2.30;;;;;;;;;;5050103;28;20200;-52
2022/09/25 12:07:51;;;;;;;4.07;2.40;;;;;;;;;;5066631;28;20542;-52
2022/09/25 12:10:26;;;;;;;4.10;2.13;;;;;;;;;;5013623;28;20929;-52
2022/09/25 12:12:58;;;;;;;4.50;2.07;;;;;;;;;;5066174;28;20650;-52
2022/09/25 12:15:43;;;;;;;4.93;2.30;;;;;;;;;;5066886;28;20670;-52
2022/09/25 12:18:09;;;;;;;5.77;2.57;;;;;;;;;;5066655;28;20178;-53
2022/09/25 12:20:56;;;;;;;2.10;1.60;;;;;;;;;;5066690;28;20202;-52
2022/09/25 12:23:41;;;;;;;6.30;2.90;;;;;;;;;;5063605;28;20290;-53
2022/09/25 12:26:10;;;;;;;3.77;1.80;;;;;;;;;;5058464;28;20252;-52
2022/09/25 12:28:46;;;;;;;3.37;2.00;;;;;;;;;;5049538;28;20220;-53
2022/09/25 12:31:30;;;;;;;4.07;2.30;;;;;;;;;;5058576;28;20173;-54
2022/09/25 12:34:15;;;;;;;3.40;2.50;;;;;;;;;;5061517;28;20180;-52
2022/09/25 12:36:48;;;;;;;5.77;2.33;;;;;;;;;;5045167;28;20197;-53
2022/09/25 12:39:30;;;;;;;3.10;2.40;;;;;;;;;;5040447;28;20211;-52
2022/09/25 12:42:06;;;;;;;2.77;2.43;;;;;;;;;;5045703;28;20196;-53
2022/09/25 12:44:43;;;;;;;4.53;2.17;;;;;;;;;;5063963;28;20249;-54
2022/09/25 12:47:17;;;;;;;3.43;1.77;;;;;;;;;;5048873;28;20274;-53
2022/09/25 12:49:53;;;;;;;3.53;2.20;;;;;;;;;;5065879;28;20543;-53
2022/09/25 12:52:21;;;;;;;3.70;2.33;;;;;;;;;;5054685;28;20592;-53
2022/09/25 12:55:07;;;;;;;9.67;2.83;;;;;;;;;;5030454;28;20212;-53
2022/09/25 12:57:33;;;;;;;4.10;2.43;;;;;;;;;;5048321;28;20185;-53
2022/09/25 13:00:17;;;;;;;3.90;1.93;;;;;;;;;;5030932;28;20647;-53
2022/09/25 13:02:56;;;;;;;5.97;2.00;;;;;;;;;;5064386;28;20180;-53
2022/09/25 13:05:25;;;;;;;3.03;2.07;;;;;;;;;;5067800;28;20619;-53
2022/09/25 13:07:57;;;;;;;3.63;2.13;;;;;;;;;;5045499;28;20208;-53
2022/09/25 13:10:26;;;;;;;2.53;2.27;;;;;;;;;;5047644;28;20161;-53
2022/09/25 13:12:54;;;;;;;3.57;2.10;;;;;;;;;;5048221;28;20195;-54
2022/09/25 13:15:22;;;;;;;2.43;1.90;;;;;;;;;;5041824;28;20207;-53
2022/09/25 13:17:48;;;;;;;2.67;2.10;;;;;;;;;;5064662;28;20176;-54
2022/09/25 13:20:30;;;;;;;2.17;1.97;;;;;;;;;;5066257;28;20528;-53
2022/09/25 13:22:58;;;;;;;3.60;2.00;;;;;;;;;;5066737;28;20657;-56
2022/09/25 13:25:25;;;;;;;2.80;1.93;;;;;;;;;;5068253;28;20682;-53
2022/09/25 13:27:53;;;;;;;3.87;1.93;;;;;;;;;;5045962;28;20704;-53
2022/09/25 13:30:27;;;;;;;2.07;1.87;;;;;;;;;;5055034;28;20920;-53
2022/09/25 13:33:01;;;;;;;5.70;2.10;;;;;;;;;;5042136;28;20188;-53
2022/09/25 13:35:29;;;;;;;4.40;1.80;;;;;;;;;;5049184;28;20175;-54
2022/09/25 13:37:56;;;;;;;4.13;1.70;;;;;;;;;;5046114;28;20209;-53
2022/09/25 13:40:41;;;;;;;1.83;1.70;;;;;;;;;;5051512;28;20271;-53
2022/09/25 13:43:22;;;;;;;3.93;1.60;;;;;;;;;;5049070;28;20551;-53
2022/09/25 13:46:09;;;;;;;2.37;1.43;;;;;;;;;;5069103;28;20211;-53
2022/09/25 13:48:36;;;;;;;2.77;1.80;;;;;;;;;;5045116;28;20230;-54
2022/09/25 13:51:18;;;;;;;3.33;1.47;;;;;;;;;;5051160;28;20590;-53
2022/09/25 13:54:02;;;;;;;2.57;1.50;;;;;;;;;;5052224;28;20188;-53
2022/09/25 13:56:40;;;;;;;2.33;1.57;;;;;;;;;;5069794;28;20216;-52
2022/09/25 13:59:14;;;;;;;3.47;2.17;;;;;;;;;;5053341;28;20180;-52
2022/09/25 14:01:49;;;;;;;1.40;1.30;;;;;;;;;;5048327;28;20228;-53
2022/09/25 14:04:16;;;;;;;2.73;2.53;;;;;;;;;;5051456;28;20203;-53
2022/09/25 14:06:47;;;;;;;3.23;1.50;;;;;;;;;;5058973;28;20246;-54
2022/09/25 14:09:18;;;;;;;3.67;1.70;;;;;;;;;;5051685;28;20721;-54
2022/09/25 14:12:07;;;;;;;1.97;1.50;;;;;;;;;;5068550;28;20271;-53
2022/09/25 14:14:36;;;;;;;1.83;1.60;;;;;;;;;;5071043;28;20165;-53
2022/09/25 14:17:03;;;;;;;1.43;1.37;;;;;;;;;;5069634;28;20695;-53
2022/09/25 14:19:34;;;;;;;2.10;1.57;;;;;;;;;;5068946;28;20271;-53
2022/09/25 14:22:01;;;;;;;2.60;1.50;;;;;;;;;;5067276;28;20196;-53
2022/09/25 14:24:29;;;;;;;4.87;1.90;;;;;;;;;;5087438;28;20223;-53
2022/09/25 14:27:00;;;;;;;1.97;1.40;;;;;;;;;;5080892;28;20192;-52
2022/09/25 14:29:38;;;;;;;3.00;1.73;;;;;;;;;;5070836;28;20153;-52
2022/09/25 14:32:14;;;;;;;4.80;2.37;;;;;;;;;;5068242;28;20603;-53
2022/09/25 14:35:00;;;;;;;4.13;2.63;;;;;;;;;;5050515;28;20677;-53
2022/09/25 14:37:45;;;;;;;2.50;1.63;;;;;;;;;;5047554;28;20205;-53
2022/09/25 14:40:14;;;;;;;4.37;2.00;;;;;;;;;;5051641;28;20234;-53
2022/09/25 14:43:00;;;;;;;4.30;1.90;;;;;;;;;;5048806;28;20660;-53
2022/09/25 14:45:46;;;;;;;2.67;1.90;;;;;;;;;;5051434;28;20157;-53
2022/09/25 14:48:16;;;;;;;5.33;2.43;;;;;;;;;;5068650;28;20698;-53
2022/09/25 14:50:51;;;;;;;3.60;1.97;;;;;;;;;;5069257;28;20185;-53
2022/09/25 14:53:22;;;;;;;2.00;1.63;;;;;;;;;;5063643;28;20645;-53
2022/09/25 14:55:51;;;;;;;1.87;1.77;;;;;;;;;;5054228;28;20230;-53
2022/09/25 14:58:20;;;;;;;3.97;2.37;;;;;;;;;;5032616;28;20162;-53
2022/09/25 15:00:47;;;;;;;2.80;2.20;;;;;;;;;;5058885;28;20187;-53
2022/09/25 15:03:15;;;;;;;4.13;2.00;;;;;;;;;;5032956;28;20204;-52
2022/09/25 15:05:45;;;;;;;4.80;2.50;;;;;;;;;;5051141;28;20670;-53
2022/09/25 15:08:23;;;;;;;2.80;1.93;;;;;;;;;;5048281;28;20608;-53
2022/09/25 15:10:59;;;;;;;2.93;2.00;;;;;;;;;;5050519;28;20183;-53
2022/09/25 15:13:32;;;;;;;3.77;2.00;;;;;;;;;;5063033;28;20193;-53
2022/09/25 15:18:45;;;;;;;1.53;1.43;;;;;;;;;;5066751;28;20214;-53
2022/09/25 15:21:22;;;;;;;3.50;1.80;;;;;;;;;;5068946;28;20706;-53
2022/09/25 15:23:50;;;;;;;5.20;2.60;;;;;;;;;;5069298;27;20232;-53